sensor_id;sensor_type;location;lat;lon;timestamp;temperature;humidity
20654;DHT22;21083;50.898;4.902;2022-12-07T00:00:36;6.00;99.90
20654;DHT22;21083;50.898;4.902;2022-12-07T00:03:03;5.80;99.90
20654;DHT22;21083;50.898;4.902;2022-12-07T00:05:30;5.90;99.90
20654;DHT22;21083;50.898;4.902;2022-12-07T00:07:57;6.00;99.90
20654;DHT22;21083;50.898;4.902;2022-12-07T00:10:24;5.80;99.90
20654;DHT22;21083;50.898;4.902;2022-12-07T00:12:51;5.80;99.90
20654;DHT22;21083;50.898;4.902;2022-12-07T00:15:19;6.00;99.90
20654;DHT22;21083;50.898;4.902;2022-12-07T00:17:46;6.10;99.90
20654;DHT22;21083;50.898;4.902;2022-12-07T00:20:13;6.10;99.90
20654;DHT22;21083;50.898;4.902;2022-12-07T00:22:40;6.10;99.90
20654;DHT22;21083;50.898;4.902;2022-12-07T00:25:07;6.00;99.90
20654;DHT22;21083;50.898;4.902;2022-12-07T00:27:34;6.10;99.90
20654;DHT22;21083;50.898;4.902;2022-12-07T00:30:01;6.20;99.90
20654;DHT22;21083;50.898;4.902;2022-12-07T00:32:29;6.00;99.90
20654;DHT22;21083;50.898;4.902;2022-12-07T00:34:56;5.80;99.90
20654;DHT22;21083;50.898;4.902;2022-12-07T00:37:23;5.90;99.90
20654;DHT22;21083;50.898;4.902;2022-12-07T00:39:50;5.90;99.90
20654;DHT22;21083;50.898;4.902;2022-12-07T00:42:17;6.00;99.90
20654;DHT22;21083;50.898;4.902;2022-12-07T00:44:44;6.00;99.90
20654;DHT22;21083;50.898;4.902;2022-12-07T00:47:10;5.90;99.90
20654;DHT22;21083;50.898;4.902;2022-12-07T00:49:39;5.90;99.90
20654;DHT22;21083;50.898;4.902;2022-12-07T00:52:05;6.00;99.90
20654;DHT22;21083;50.898;4.902;2022-12-07T00:54:32;5.80;99.90
20654;DHT22;21083;50.898;4.902;2022-12-07T00:56:59;5.80;99.90
20654;DHT22;21083;50.898;4.902;2022-12-07T00:59:26;5.70;99.90
20654;DHT22;21083;50.898;4.902;2022-12-07T01:01:53;5.60;99.90
20654;DHT22;21083;50.898;4.902;2022-12-07T01:04:20;5.60;99.90
20654;DHT22;21083;50.898;4.902;2022-12-07T01:06:48;5.60;99.90
20654;DHT22;21083;50.898;4.902;2022-12-07T01:09:15;5.60;99.90
20654;DHT22;21083;50.898;4.902;2022-12-07T01:11:42;5.80;99.90
20654;DHT22;21083;50.898;4.902;2022-12-07T01:14:09;5.80;99.90
20654;DHT22;21083;50.898;4.902;2022-12-07T01:16:36;5.80;99.90
20654;DHT22;21083;50.898;4.902;2022-12-07T01:19:05;5.80;99.90
20654;DHT22;21083;50.898;4.902;2022-12-07T01:21:34;5.90;99.90
20654;DHT22;21083;50.898;4.902;2022-12-07T01:24:06;5.80;99.90
20654;DHT22;21083;50.898;4.902;2022-12-07T01:26:33;5.70;99.90
20654;DHT22;21083;50.898;4.902;2022-12-07T01:29:00;5.60;99.90
20654;DHT22;21083;50.898;4.902;2022-12-07T01:31:28;5.60;99.90
20654;DHT22;21083;50.898;4.902;2022-12-07T01:33:56;5.60;99.90
20654;DHT22;21083;50.898;4.902;2022-12-07T01:36:25;5.60;99.90
20654;DHT22;21083;50.898;4.902;2022-12-07T01:38:56;5.50;99.90
20654;DHT22;21083;50.898;4.902;2022-12-07T01:41:27;5.60;99.90
20654;DHT22;21083;50.898;4.902;2022-12-07T01:44:19;5.80;99.90
20654;DHT22;21083;50.898;4.902;2022-12-07T01:46:47;5.80;99.90
20654;DHT22;21083;50.898;4.902;2022-12-07T01:49:28;5.70;99.90
20654;DHT22;21083;50.898;4.902;2022-12-07T01:52:01;5.70;99.90
20654;DHT22;21083;50.898;4.902;2022-12-07T01:54:31;5.60;99.90
20654;DHT22;21083;50.898;4.902;2022-12-07T01:57:01;5.70;99.90
20654;DHT22;21083;50.898;4.902;2022-12-07T01:59:29;5.70;99.90
20654;DHT22;21083;50.898;4.902;2022-12-07T02:01:56;5.70;99.90
20654;DHT22;21083;50.898;4.902;2022-12-07T02:04:23;5.70;99.90
20654;DHT22;21083;50.898;4.902;2022-12-07T02:06:51;5.50;99.90
20654;DHT22;21083;50.898;4.902;2022-12-07T02:09:18;5.50;99.90
20654;DHT22;21083;50.898;4.902;2022-12-07T02:11:45;5.40;99.90
20654;DHT22;21083;50.898;4.902;2022-12-07T02:14:13;5.50;99.90
20654;DHT22;21083;50.898;4.902;2022-12-07T02:16:47;5.60;99.90
20654;DHT22;21083;50.898;4.902;2022-12-07T02:20:00;5.80;99.90
20654;DHT22;21083;50.898;4.902;2022-12-07T02:22:51;5.90;99.90
20654;DHT22;21083;50.898;4.902;2022-12-07T02:25:29;5.70;99.90
20654;DHT22;21083;50.898;4.902;2022-12-07T02:28:01;5.70;99.90
20654;DHT22;21083;50.898;4.902;2022-12-07T02:30:34;5.70;99.90
20654;DHT22;21083;50.898;4.902;2022-12-07T02:33:05;5.50;99.90
20654;DHT22;21083;50.898;4.902;2022-12-07T02:35:33;5.40;99.90
20654;DHT22;21083;50.898;4.902;2022-12-07T02:38:12;5.40;99.90
20654;DHT22;21083;50.898;4.902;2022-12-07T02:40:45;5.50;99.90
20654;DHT22;21083;50.898;4.902;2022-12-07T02:43:17;5.50;99.90
20654;DHT22;21083;50.898;4.902;2022-12-07T02:45:48;5.60;99.90
20654;DHT22;21083;50.898;4.902;2022-12-07T02:48:17;5.50;99.90
20654;DHT22;21083;50.898;4.902;2022-12-07T02:50:48;5.50;99.90
20654;DHT22;21083;50.898;4.902;2022-12-07T02:53:32;5.60;99.90
20654;DHT22;21083;50.898;4.902;2022-12-07T02:56:00;5.80;99.90
20654;DHT22;21083;50.898;4.902;2022-12-07T02:58:38;5.90;99.90
20654;DHT22;21083;50.898;4.902;2022-12-07T03:01:17;5.80;99.90
20654;DHT22;21083;50.898;4.902;2022-12-07T03:03:51;5.70;99.90
20654;DHT22;21083;50.898;4.902;2022-12-07T03:06:29;5.70;99.90
20654;DHT22;21083;50.898;4.902;2022-12-07T03:09:07;5.80;99.90
20654;DHT22;21083;50.898;4.902;2022-12-07T03:11:42;5.60;99.90
20654;DHT22;21083;50.898;4.902;2022-12-07T03:14:16;5.60;99.90
20654;DHT22;21083;50.898;4.902;2022-12-07T03:16:48;5.50;99.90
20654;DHT22;21083;50.898;4.902;2022-12-07T03:19:19;5.40;99.90
20654;DHT22;21083;50.898;4.902;2022-12-07T03:21:49;5.50;99.90
20654;DHT22;21083;50.898;4.902;2022-12-07T03:24:22;5.50;99.90
20654;DHT22;21083;50.898;4.902;2022-12-07T03:26:53;5.60;99.90
20654;DHT22;21083;50.898;4.902;2022-12-07T03:29:25;5.60;99.90
20654;DHT22;21083;50.898;4.902;2022-12-07T03:31:58;5.70;99.90
20654;DHT22;21083;50.898;4.902;2022-12-07T03:34:32;5.70;99.90
20654;DHT22;21083;50.898;4.902;2022-12-07T03:37:03;5.80;99.90
20654;DHT22;21083;50.898;4.902;2022-12-07T03:39:36;5.70;99.90
20654;DHT22;21083;50.898;4.902;2022-12-07T03:42:05;5.60;99.90
20654;DHT22;21083;50.898;4.902;2022-12-07T03:44:35;5.70;99.90
20654;DHT22;21083;50.898;4.902;2022-12-07T03:47:06;5.60;99.90
20654;DHT22;21083;50.898;4.902;2022-12-07T03:49:42;5.40;99.90
20654;DHT22;21083;50.898;4.902;2022-12-07T03:52:16;5.30;99.90
20654;DHT22;21083;50.898;4.902;2022-12-07T03:54:49;5.40;99.90
20654;DHT22;21083;50.898;4.902;2022-12-07T03:57:19;5.50;99.90
20654;DHT22;21083;50.898;4.902;2022-12-07T03:59:47;5.50;99.90
20654;DHT22;21083;50.898;4.902;2022-12-07T04:02:16;5.40;99.90
20654;DHT22;21083;50.898;4.902;2022-12-07T04:04:43;5.20;99.90
20654;DHT22;21083;50.898;4.902;2022-12-07T04:07:10;5.20;99.90
20654;DHT22;21083;50.898;4.902;2022-12-07T04:09:38;5.10;99.90
20654;DHT22;21083;50.898;4.902;2022-12-07T04:12:05;5.30;99.90
20654;DHT22;21083;50.898;4.902;2022-12-07T04:14:33;5.40;99.90
20654;DHT22;21083;50.898;4.902;2022-12-07T04:16:59;5.60;99.90
20654;DHT22;21083;50.898;4.902;2022-12-07T04:19:29;5.50;99.90
20654;DHT22;21083;50.898;4.902;2022-12-07T04:21:57;5.50;99.90
20654;DHT22;21083;50.898;4.902;2022-12-07T04:24:25;5.60;99.90
20654;DHT22;21083;50.898;4.902;2022-12-07T04:26:52;5.50;99.90
20654;DHT22;21083;50.898;4.902;2022-12-07T04:29:19;5.60;99.90
20654;DHT22;21083;50.898;4.902;2022-12-07T04:31:47;5.50;99.90
20654;DHT22;21083;50.898;4.902;2022-12-07T04:34:14;5.40;99.90
20654;DHT22;21083;50.898;4.902;2022-12-07T04:36:43;5.40;99.90
20654;DHT22;21083;50.898;4.902;2022-12-07T04:39:18;5.40;99.90
20654;DHT22;21083;50.898;4.902;2022-12-07T04:41:45;5.30;99.90
20654;DHT22;21083;50.898;4.902;2022-12-07T04:44:13;5.30;99.90
20654;DHT22;21083;50.898;4.902;2022-12-07T04:46:41;5.30;99.90
20654;DHT22;21083;50.898;4.902;2022-12-07T04:49:08;5.30;99.90
20654;DHT22;21083;50.898;4.902;2022-12-07T04:51:35;5.20;99.90
20654;DHT22;21083;50.898;4.902;2022-12-07T04:54:04;5.20;99.90
20654;DHT22;21083;50.898;4.902;2022-12-07T04:56:31;5.20;99.90
20654;DHT22;21083;50.898;4.902;2022-12-07T04:58:58;5.20;99.90
20654;DHT22;21083;50.898;4.902;2022-12-07T05:01:25;5.20;99.90
20654;DHT22;21083;50.898;4.902;2022-12-07T05:03:52;5.10;99.90
20654;DHT22;21083;50.898;4.902;2022-12-07T05:06:19;5.30;99.90
20654;DHT22;21083;50.898;4.902;2022-12-07T05:08:46;5.40;99.90
20654;DHT22;21083;50.898;4.902;2022-12-07T05:11:14;5.40;99.90
20654;DHT22;21083;50.898;4.902;2022-12-07T05:13:55;5.30;99.90
20654;DHT22;21083;50.898;4.902;2022-12-07T05:16:22;5.20;99.90
20654;DHT22;21083;50.898;4.902;2022-12-07T05:18:49;5.10;99.90
20654;DHT22;21083;50.898;4.902;2022-12-07T05:21:16;4.70;99.90
20654;DHT22;21083;50.898;4.902;2022-12-07T05:23:43;4.60;99.90
20654;DHT22;21083;50.898;4.902;2022-12-07T05:26:10;4.70;99.90
20654;DHT22;21083;50.898;4.902;2022-12-07T05:28:38;4.80;99.90
20654;DHT22;21083;50.898;4.902;2022-12-07T05:31:05;4.90;99.90
20654;DHT22;21083;50.898;4.902;2022-12-07T05:33:32;4.90;99.90
20654;DHT22;21083;50.898;4.902;2022-12-07T05:35:59;4.90;99.90
20654;DHT22;21083;50.898;4.902;2022-12-07T05:38:31;5.00;99.90
20654;DHT22;21083;50.898;4.902;2022-12-07T05:41:00;5.00;99.90
20654;DHT22;21083;50.898;4.902;2022-12-07T05:43:28;5.10;99.90
20654;DHT22;21083;50.898;4.902;2022-12-07T05:45:57;5.10;99.90
20654;DHT22;21083;50.898;4.902;2022-12-07T05:48:24;5.20;99.90
20654;DHT22;21083;50.898;4.902;2022-12-07T05:50:52;5.10;99.90
20654;DHT22;21083;50.898;4.902;2022-12-07T05:53:19;5.10;99.90
20654;DHT22;21083;50.898;4.902;2022-12-07T05:55:46;5.20;99.90
20654;DHT22;21083;50.898;4.902;2022-12-07T05:58:13;5.20;99.90
20654;DHT22;21083;50.898;4.902;2022-12-07T06:00:58;5.30;99.90
20654;DHT22;21083;50.898;4.902;2022-12-07T06:03:25;5.20;99.90
20654;DHT22;21083;50.898;4.902;2022-12-07T06:05:52;5.30;99.90
20654;DHT22;21083;50.898;4.902;2022-12-07T06:08:20;5.30;99.90
20654;DHT22;21083;50.898;4.902;2022-12-07T06:10:47;5.30;99.90
20654;DHT22;21083;50.898;4.902;2022-12-07T06:13:36;5.40;99.90
20654;DHT22;21083;50.898;4.902;2022-12-07T06:16:04;5.30;99.90
20654;DHT22;21083;50.898;4.902;2022-12-07T06:18:31;5.40;99.90
20654;DHT22;21083;50.898;4.902;2022-12-07T06:20:58;5.30;99.90
20654;DHT22;21083;50.898;4.902;2022-12-07T06:23:24;5.40;99.90
20654;DHT22;21083;50.898;4.902;2022-12-07T06:25:51;5.30;99.90
20654;DHT22;21083;50.898;4.902;2022-12-07T06:28:18;5.40;99.90
20654;DHT22;21083;50.898;4.902;2022-12-07T06:30:45;5.50;99.90
20654;DHT22;21083;50.898;4.902;2022-12-07T06:33:13;5.20;99.90
20654;DHT22;21083;50.898;4.902;2022-12-07T06:35:41;5.30;99.90
20654;DHT22;21083;50.898;4.902;2022-12-07T06:38:08;5.20;99.90
20654;DHT22;21083;50.898;4.902;2022-12-07T06:40:34;5.30;99.90
20654;DHT22;21083;50.898;4.902;2022-12-07T06:43:01;5.20;99.90
20654;DHT22;21083;50.898;4.902;2022-12-07T06:45:28;5.30;99.90
20654;DHT22;21083;50.898;4.902;2022-12-07T06:47:55;5.20;99.90
20654;DHT22;21083;50.898;4.902;2022-12-07T06:50:23;5.30;99.90
20654;DHT22;21083;50.898;4.902;2022-12-07T06:52:50;5.20;99.90
20654;DHT22;21083;50.898;4.902;2022-12-07T06:55:17;5.20;99.90
20654;DHT22;21083;50.898;4.902;2022-12-07T06:57:44;5.20;99.90
20654;DHT22;21083;50.898;4.902;2022-12-07T07:00:12;5.20;99.90
20654;DHT22;21083;50.898;4.902;2022-12-07T07:02:39;5.30;99.90
20654;DHT22;21083;50.898;4.902;2022-12-07T07:05:07;5.30;99.90
20654;DHT22;21083;50.898;4.902;2022-12-07T07:07:35;5.30;99.90
20654;DHT22;21083;50.898;4.902;2022-12-07T07:10:03;5.20;99.90
20654;DHT22;21083;50.898;4.902;2022-12-07T07:12:30;5.10;99.90
20654;DHT22;21083;50.898;4.902;2022-12-07T07:14:58;5.10;99.90
20654;DHT22;21083;50.898;4.902;2022-12-07T07:17:25;5.10;99.90
20654;DHT22;21083;50.898;4.902;2022-12-07T07:19:52;5.20;99.90
20654;DHT22;21083;50.898;4.902;2022-12-07T07:22:19;5.30;99.90
20654;DHT22;21083;50.898;4.902;2022-12-07T07:24:47;5.20;99.90
20654;DHT22;21083;50.898;4.902;2022-12-07T07:27:14;5.30;99.90
20654;DHT22;21083;50.898;4.902;2022-12-07T07:29:40;5.20;99.90
20654;DHT22;21083;50.898;4.902;2022-12-07T07:32:07;5.20;99.90
20654;DHT22;21083;50.898;4.902;2022-12-07T07:34:34;5.10;99.90
20654;DHT22;21083;50.898;4.902;2022-12-07T07:37:01;5.10;99.90
20654;DHT22;21083;50.898;4.902;2022-12-07T07:39:28;5.20;99.90
20654;DHT22;21083;50.898;4.902;2022-12-07T07:41:56;5.30;99.90
20654;DHT22;21083;50.898;4.902;2022-12-07T07:44:23;5.20;99.90
20654;DHT22;21083;50.898;4.902;2022-12-07T07:46:50;5.30;99.90
20654;DHT22;21083;50.898;4.902;2022-12-07T07:49:17;5.20;99.90
20654;DHT22;21083;50.898;4.902;2022-12-07T07:51:44;5.20;99.90
20654;DHT22;21083;50.898;4.902;2022-12-07T07:54:10;5.20;99.90
20654;DHT22;21083;50.898;4.902;2022-12-07T07:56:37;5.20;99.90
20654;DHT22;21083;50.898;4.902;2022-12-07T07:59:05;5.10;99.90
20654;DHT22;21083;50.898;4.902;2022-12-07T08:01:32;5.20;99.90
20654;DHT22;21083;50.898;4.902;2022-12-07T08:03:59;5.20;99.90
20654;DHT22;21083;50.898;4.902;2022-12-07T08:06:26;5.20;99.90
20654;DHT22;21083;50.898;4.902;2022-12-07T08:08:53;5.20;99.90
20654;DHT22;21083;50.898;4.902;2022-12-07T08:11:20;5.10;99.90
20654;DHT22;21083;50.898;4.902;2022-12-07T08:13:47;5.10;99.90
20654;DHT22;21083;50.898;4.902;2022-12-07T08:16:15;5.00;99.90
20654;DHT22;21083;50.898;4.902;2022-12-07T08:18:43;5.00;99.90
20654;DHT22;21083;50.898;4.902;2022-12-07T08:21:12;5.10;99.90
20654;DHT22;21083;50.898;4.902;2022-12-07T08:23:40;5.10;99.90
20654;DHT22;21083;50.898;4.902;2022-12-07T08:26:08;5.10;99.90
20654;DHT22;21083;50.898;4.902;2022-12-07T08:28:36;5.10;99.90
20654;DHT22;21083;50.898;4.902;2022-12-07T08:31:05;5.10;99.90
20654;DHT22;21083;50.898;4.902;2022-12-07T08:33:34;5.10;99.90
20654;DHT22;21083;50.898;4.902;2022-12-07T08:36:02;5.10;99.90
20654;DHT22;21083;50.898;4.902;2022-12-07T08:38:29;5.10;99.90
20654;DHT22;21083;50.898;4.902;2022-12-07T08:40:56;5.20;99.90
20654;DHT22;21083;50.898;4.902;2022-12-07T08:43:24;5.20;99.90
20654;DHT22;21083;50.898;4.902;2022-12-07T08:45:57;5.20;99.90
20654;DHT22;21083;50.898;4.902;2022-12-07T08:48:28;5.30;99.90
20654;DHT22;21083;50.898;4.902;2022-12-07T08:50:58;5.30;99.90
20654;DHT22;21083;50.898;4.902;2022-12-07T08:53:25;5.40;99.90
20654;DHT22;21083;50.898;4.902;2022-12-07T08:55:52;5.50;99.90
20654;DHT22;21083;50.898;4.902;2022-12-07T08:58:19;5.50;99.90
20654;DHT22;21083;50.898;4.902;2022-12-07T09:00:46;5.40;99.90
20654;DHT22;21083;50.898;4.902;2022-12-07T09:03:13;5.40;99.90
20654;DHT22;21083;50.898;4.902;2022-12-07T09:05:40;5.70;99.90
20654;DHT22;21083;50.898;4.902;2022-12-07T09:08:08;5.60;99.90
20654;DHT22;21083;50.898;4.902;2022-12-07T09:10:35;5.60;99.90
20654;DHT22;21083;50.898;4.902;2022-12-07T09:13:02;5.60;99.90
20654;DHT22;21083;50.898;4.902;2022-12-07T09:15:29;5.70;99.90
20654;DHT22;21083;50.898;4.902;2022-12-07T09:17:56;5.80;99.90
20654;DHT22;21083;50.898;4.902;2022-12-07T09:20:23;5.80;99.90
20654;DHT22;21083;50.898;4.902;2022-12-07T09:22:50;5.80;99.90
20654;DHT22;21083;50.898;4.902;2022-12-07T09:25:18;5.80;99.90
20654;DHT22;21083;50.898;4.902;2022-12-07T09:27:45;6.00;99.90
20654;DHT22;21083;50.898;4.902;2022-12-07T09:30:12;5.70;99.90
20654;DHT22;21083;50.898;4.902;2022-12-07T09:32:40;5.70;99.90
20654;DHT22;21083;50.898;4.902;2022-12-07T09:35:07;5.70;99.90
20654;DHT22;21083;50.898;4.902;2022-12-07T09:37:35;5.70;99.90
20654;DHT22;21083;50.898;4.902;2022-12-07T09:40:03;5.90;99.90
20654;DHT22;21083;50.898;4.902;2022-12-07T09:42:34;6.30;99.90
20654;DHT22;21083;50.898;4.902;2022-12-07T09:45:05;6.20;99.90
20654;DHT22;21083;50.898;4.902;2022-12-07T09:47:33;6.30;99.90
20654;DHT22;21083;50.898;4.902;2022-12-07T09:50:04;6.50;99.90
20654;DHT22;21083;50.898;4.902;2022-12-07T09:52:32;6.50;99.90
20654;DHT22;21083;50.898;4.902;2022-12-07T09:54:58;6.50;99.90
20654;DHT22;21083;50.898;4.902;2022-12-07T09:57:29;6.30;99.90
20654;DHT22;21083;50.898;4.902;2022-12-07T10:00:00;6.30;99.90
20654;DHT22;21083;50.898;4.902;2022-12-07T10:02:36;6.20;99.90
20654;DHT22;21083;50.898;4.902;2022-12-07T10:05:05;6.40;99.90
20654;DHT22;21083;50.898;4.902;2022-12-07T10:07:32;6.50;99.90
20654;DHT22;21083;50.898;4.902;2022-12-07T10:10:01;6.70;99.90
20654;DHT22;21083;50.898;4.902;2022-12-07T10:12:28;6.70;99.90
20654;DHT22;21083;50.898;4.902;2022-12-07T10:14:59;7.00;99.90
20654;DHT22;21083;50.898;4.902;2022-12-07T10:17:34;7.10;99.90
20654;DHT22;21083;50.898;4.902;2022-12-07T10:20:20;7.30;99.90
20654;DHT22;21083;50.898;4.902;2022-12-07T10:22:59;7.50;99.90
20654;DHT22;21083;50.898;4.902;2022-12-07T10:25:28;7.60;99.90
20654;DHT22;21083;50.898;4.902;2022-12-07T10:27:59;7.40;99.90
20654;DHT22;21083;50.898;4.902;2022-12-07T10:30:28;7.30;99.90
20654;DHT22;21083;50.898;4.902;2022-12-07T10:32:56;7.20;99.90
20654;DHT22;21083;50.898;4.902;2022-12-07T10:35:25;7.30;99.90
20654;DHT22;21083;50.898;4.902;2022-12-07T10:37:54;7.40;99.90
20654;DHT22;21083;50.898;4.902;2022-12-07T10:40:28;7.20;99.90
20654;DHT22;21083;50.898;4.902;2022-12-07T10:43:16;7.10;99.90
20654;DHT22;21083;50.898;4.902;2022-12-07T10:48:45;6.90;99.90
20654;DHT22;21083;50.898;4.902;2022-12-07T10:51:18;6.90;99.90
20654;DHT22;21083;50.898;4.902;2022-12-07T10:53:57;6.90;99.90
20654;DHT22;21083;50.898;4.902;2022-12-07T10:56:42;7.10;99.90
20654;DHT22;21083;50.898;4.902;2022-12-07T10:59:25;7.20;99.90
20654;DHT22;21083;50.898;4.902;2022-12-07T11:01:58;7.50;99.90
20654;DHT22;21083;50.898;4.902;2022-12-07T11:04:34;7.40;99.90
20654;DHT22;21083;50.898;4.902;2022-12-07T11:07:08;7.30;99.90
20654;DHT22;21083;50.898;4.902;2022-12-07T11:10:01;7.40;99.90
20654;DHT22;21083;50.898;4.902;2022-12-07T11:12:41;7.30;99.90
20654;DHT22;21083;50.898;4.902;2022-12-07T11:15:17;7.20;99.90
20654;DHT22;21083;50.898;4.902;2022-12-07T11:17:52;7.10;99.90
20654;DHT22;21083;50.898;4.902;2022-12-07T11:20:33;7.20;99.90
20654;DHT22;21083;50.898;4.902;2022-12-07T11:23:10;7.30;99.90
20654;DHT22;21083;50.898;4.902;2022-12-07T11:25:43;7.20;99.90
20654;DHT22;21083;50.898;4.902;2022-12-07T11:28:25;7.40;99.90
20654;DHT22;21083;50.898;4.902;2022-12-07T11:31:02;7.40;99.90
20654;DHT22;21083;50.898;4.902;2022-12-07T11:33:39;7.60;99.90
20654;DHT22;21083;50.898;4.902;2022-12-07T11:36:17;8.80;99.90
20654;DHT22;21083;50.898;4.902;2022-12-07T11:38:53;10.00;99.90
20654;DHT22;21083;50.898;4.902;2022-12-07T11:41:22;10.50;99.90
20654;DHT22;21083;50.898;4.902;2022-12-07T11:43:56;10.00;99.90
20654;DHT22;21083;50.898;4.902;2022-12-07T11:46:28;9.60;99.90
20654;DHT22;21083;50.898;4.902;2022-12-07T11:49:08;9.10;99.90
20654;DHT22;21083;50.898;4.902;2022-12-07T11:51:39;8.90;99.90
20654;DHT22;21083;50.898;4.902;2022-12-07T11:54:14;8.70;99.90
20654;DHT22;21083;50.898;4.902;2022-12-07T11:56:42;8.60;99.90
20654;DHT22;21083;50.898;4.902;2022-12-07T11:59:12;8.50;99.90
20654;DHT22;21083;50.898;4.902;2022-12-07T12:01:48;8.60;99.90
20654;DHT22;21083;50.898;4.902;2022-12-07T12:04:27;8.50;99.90
20654;DHT22;21083;50.898;4.902;2022-12-07T12:06:55;8.60;99.90
20654;DHT22;21083;50.898;4.902;2022-12-07T12:09:26;9.00;99.90
20654;DHT22;21083;50.898;4.902;2022-12-07T12:12:20;9.60;99.90
20654;DHT22;21083;50.898;4.902;2022-12-07T12:14:59;9.70;99.90
20654;DHT22;21083;50.898;4.902;2022-12-07T12:17:51;10.00;99.90
20654;DHT22;21083;50.898;4.902;2022-12-07T12:20:25;10.20;99.90
20654;DHT22;21083;50.898;4.902;2022-12-07T12:22:58;10.60;99.90
20654;DHT22;21083;50.898;4.902;2022-12-07T12:25:34;11.20;99.90
20654;DHT22;21083;50.898;4.902;2022-12-07T12:28:03;11.50;99.90
20654;DHT22;21083;50.898;4.902;2022-12-07T12:30:33;11.20;99.90
20654;DHT22;21083;50.898;4.902;2022-12-07T12:33:03;10.70;99.90
20654;DHT22;21083;50.898;4.902;2022-12-07T12:35:34;10.60;99.90
20654;DHT22;21083;50.898;4.902;2022-12-07T12:38:29;10.40;99.90
20654;DHT22;21083;50.898;4.902;2022-12-07T12:40:57;10.30;99.90
20654;DHT22;21083;50.898;4.902;2022-12-07T12:43:51;9.80;99.90
20654;DHT22;21083;50.898;4.902;2022-12-07T12:46:49;9.50;99.90
20654;DHT22;21083;50.898;4.902;2022-12-07T12:49:43;9.10;99.90
20654;DHT22;21083;50.898;4.902;2022-12-07T12:55:18;8.70;99.90
20654;DHT22;21083;50.898;4.902;2022-12-07T12:57:47;8.40;99.90
20654;DHT22;21083;50.898;4.902;2022-12-07T13:00:36;8.30;99.90
20654;DHT22;21083;50.898;4.902;2022-12-07T13:03:03;8.50;99.90
20654;DHT22;21083;50.898;4.902;2022-12-07T13:05:30;9.50;99.90
20654;DHT22;21083;50.898;4.902;2022-12-07T13:08:02;11.30;99.90
20654;DHT22;21083;50.898;4.902;2022-12-07T13:10:37;12.50;99.90
20654;DHT22;21083;50.898;4.902;2022-12-07T13:13:28;13.30;99.90
20654;DHT22;21083;50.898;4.902;2022-12-07T13:16:36;14.70;99.90
20654;DHT22;21083;50.898;4.902;2022-12-07T13:22:27;13.40;99.90
20654;DHT22;21083;50.898;4.902;2022-12-07T13:24:55;12.90;99.90
20654;DHT22;21083;50.898;4.902;2022-12-07T13:27:22;12.70;99.90
20654;DHT22;21083;50.898;4.902;2022-12-07T13:29:51;11.70;99.90
20654;DHT22;21083;50.898;4.902;2022-12-07T13:32:23;11.20;99.90
20654;DHT22;21083;50.898;4.902;2022-12-07T13:34:51;10.40;99.90
20654;DHT22;21083;50.898;4.902;2022-12-07T13:37:23;9.90;99.90
20654;DHT22;21083;50.898;4.902;2022-12-07T13:39:52;9.70;99.90
20654;DHT22;21083;50.898;4.902;2022-12-07T13:42:24;9.40;99.90
20654;DHT22;21083;50.898;4.902;2022-12-07T13:44:52;9.30;99.90
20654;DHT22;21083;50.898;4.902;2022-12-07T13:47:25;9.30;99.90
20654;DHT22;21083;50.898;4.902;2022-12-07T13:49:56;9.50;99.90
20654;DHT22;21083;50.898;4.902;2022-12-07T13:52:25;9.30;99.90
20654;DHT22;21083;50.898;4.902;2022-12-07T13:54:57;9.00;99.90
20654;DHT22;21083;50.898;4.902;2022-12-07T13:57:25;8.90;99.90
20654;DHT22;21083;50.898;4.902;2022-12-07T13:59:53;8.70;99.90
20654;DHT22;21083;50.898;4.902;2022-12-07T14:02:26;8.80;99.90
20654;DHT22;21083;50.898;4.902;2022-12-07T14:05:07;8.90;99.90
20654;DHT22;21083;50.898;4.902;2022-12-07T14:07:35;8.80;99.90
20654;DHT22;21083;50.898;4.902;2022-12-07T14:10:04;8.80;99.90
20654;DHT22;21083;50.898;4.902;2022-12-07T14:12:36;8.70;99.90
20654;DHT22;21083;50.898;4.902;2022-12-07T14:15:04;8.30;99.90
20654;DHT22;21083;50.898;4.902;2022-12-07T14:17:32;8.30;99.90
20654;DHT22;21083;50.898;4.902;2022-12-07T14:20:00;8.30;99.90
20654;DHT22;21083;50.898;4.902;2022-12-07T14:22:29;8.40;99.90
20654;DHT22;21083;50.898;4.902;2022-12-07T14:25:19;8.20;99.90
20654;DHT22;21083;50.898;4.902;2022-12-07T14:27:52;8.00;99.90
20654;DHT22;21083;50.898;4.902;2022-12-07T14:30:22;8.00;99.90
20654;DHT22;21083;50.898;4.902;2022-12-07T14:32:53;7.80;99.90
20654;DHT22;21083;50.898;4.902;2022-12-07T14:35:20;7.60;99.90
20654;DHT22;21083;50.898;4.902;2022-12-07T14:37:49;7.80;99.90
20654;DHT22;21083;50.898;4.902;2022-12-07T14:40:18;8.00;99.90
20654;DHT22;21083;50.898;4.902;2022-12-07T14:42:45;8.00;99.90
20654;DHT22;21083;50.898;4.902;2022-12-07T14:45:15;8.20;99.90
20654;DHT22;21083;50.898;4.902;2022-12-07T14:47:43;8.10;99.90
20654;DHT22;21083;50.898;4.902;2022-12-07T14:50:14;8.00;99.90
20654;DHT22;21083;50.898;4.902;2022-12-07T14:52:42;7.70;99.90
20654;DHT22;21083;50.898;4.902;2022-12-07T14:55:16;7.60;99.90
20654;DHT22;21083;50.898;4.902;2022-12-07T14:57:47;7.50;99.90
20654;DHT22;21083;50.898;4.902;2022-12-07T15:00:15;7.60;99.90
20654;DHT22;21083;50.898;4.902;2022-12-07T15:02:43;7.70;99.90
20654;DHT22;21083;50.898;4.902;2022-12-07T15:05:10;7.70;99.90
20654;DHT22;21083;50.898;4.902;2022-12-07T15:07:39;7.40;99.90
20654;DHT22;21083;50.898;4.902;2022-12-07T15:10:09;7.30;99.90
20654;DHT22;21083;50.898;4.902;2022-12-07T15:12:39;7.10;99.90
20654;DHT22;21083;50.898;4.902;2022-12-07T15:15:07;7.00;99.90
20654;DHT22;21083;50.898;4.902;2022-12-07T15:17:34;7.10;99.90
20654;DHT22;21083;50.898;4.902;2022-12-07T15:20:01;7.20;99.90
20654;DHT22;21083;50.898;4.902;2022-12-07T15:22:28;7.10;99.90
20654;DHT22;21083;50.898;4.902;2022-12-07T15:24:58;7.00;99.90
20654;DHT22;21083;50.898;4.902;2022-12-07T15:27:25;7.10;99.90
20654;DHT22;21083;50.898;4.902;2022-12-07T15:29:51;7.20;99.90
20654;DHT22;21083;50.898;4.902;2022-12-07T15:32:19;7.00;99.90
20654;DHT22;21083;50.898;4.902;2022-12-07T15:34:46;7.00;99.90
20654;DHT22;21083;50.898;4.902;2022-12-07T15:37:13;7.00;99.90
20654;DHT22;21083;50.898;4.902;2022-12-07T15:39:39;7.30;99.90
20654;DHT22;21083;50.898;4.902;2022-12-07T15:42:08;6.90;99.90
20654;DHT22;21083;50.898;4.902;2022-12-07T15:44:34;6.80;99.90
20654;DHT22;21083;50.898;4.902;2022-12-07T15:47:19;6.90;99.90
20654;DHT22;21083;50.898;4.902;2022-12-07T15:49:46;7.10;99.90
20654;DHT22;21083;50.898;4.902;2022-12-07T15:52:13;7.10;99.90
20654;DHT22;21083;50.898;4.902;2022-12-07T15:54:41;7.20;99.90
20654;DHT22;21083;50.898;4.902;2022-12-07T15:57:09;7.00;99.90
20654;DHT22;21083;50.898;4.902;2022-12-07T15:59:36;6.80;99.90
20654;DHT22;21083;50.898;4.902;2022-12-07T16:02:03;6.70;99.90
20654;DHT22;21083;50.898;4.902;2022-12-07T16:04:30;6.80;99.90
20654;DHT22;21083;50.898;4.902;2022-12-07T16:06:57;6.70;99.90
20654;DHT22;21083;50.898;4.902;2022-12-07T16:09:25;6.50;99.90
20654;DHT22;21083;50.898;4.902;2022-12-07T16:11:52;6.50;99.90
20654;DHT22;21083;50.898;4.902;2022-12-07T16:14:20;6.50;99.90